sensor_id;sensor_type;location;lat;lon;timestamp;pressure;altitude;pressure_sealevel;temperature;humidity
34925;BME280;21130;51.728;8.748;2023-04-12T00:00:38;99705.72;;;6.69;100.00
34925;BME280;21130;51.728;8.748;2023-04-12T00:03:08;99691.59;;;6.66;100.00
34925;BME280;21130;51.728;8.748;2023-04-12T00:05:34;99680.19;;;6.74;100.00
34925;BME280;21130;51.728;8.748;2023-04-12T00:08:02;99670.97;;;6.68;100.00
34925;BME280;21130;51.728;8.748;2023-04-12T00:10:29;99659.81;;;6.63;100.00
34925;BME280;21130;51.728;8.748;2023-04-12T00:12:56;99653.69;;;6.61;100.00
34925;BME280;21130;51.728;8.748;2023-04-12T00:15:22;99646.84;;;6.64;100.00
34925;BME280;21130;51.728;8.748;2023-04-12T00:17:48;99642.06;;;6.71;100.00
34925;BME280;21130;51.728;8.748;2023-04-12T00:20:16;99641.84;;;6.73;100.00
34925;BME280;21130;51.728;8.748;2023-04-12T00:22:44;99633.56;;;6.73;100.00
34925;BME280;21130;51.728;8.748;2023-04-12T00:25:10;99632.69;;;6.72;100.00
34925;BME280;21130;51.728;8.748;2023-04-12T00:27:37;99619.50;;;6.74;100.00
34925;BME280;21130;51.728;8.748;2023-04-12T00:30:04;99619.06;;;6.65;100.00
34925;BME280;21130;51.728;8.748;2023-04-12T00:32:31;99598.06;;;6.64;100.00
34925;BME280;21130;51.728;8.748;2023-04-12T00:34:58;99592.94;;;6.68;100.00
34925;BME280;21130;51.728;8.748;2023-04-12T00:37:26;99588.00;;;6.70;100.00
34925;BME280;21130;51.728;8.748;2023-04-12T00:39:52;99588.47;;;6.79;100.00
34925;BME280;21130;51.728;8.748;2023-04-12T00:42:18;99574.69;;;6.79;100.00
34925;BME280;21130;51.728;8.748;2023-04-12T00:44:45;99569.88;;;6.86;100.00
34925;BME280;21130;51.728;8.748;2023-04-12T00:47:11;99573.22;;;6.88;100.00
34925;BME280;21130;51.728;8.748;2023-04-12T00:49:38;99574.56;;;6.85;100.00
34925;BME280;21130;51.728;8.748;2023-04-12T00:52:06;99563.25;;;6.87;100.00
34925;BME280;21130;51.728;8.748;2023-04-12T00:54:35;99561.09;;;6.89;100.00
34925;BME280;21130;51.728;8.748;2023-04-12T00:57:02;99550.06;;;6.89;100.00
34925;BME280;21130;51.728;8.748;2023-04-12T00:59:29;99546.25;;;6.90;100.00
34925;BME280;21130;51.728;8.748;2023-04-12T01:01:56;99552.94;;;6.94;100.00
34925;BME280;21130;51.728;8.748;2023-04-12T01:04:24;99547.56;;;6.87;100.00
34925;BME280;21130;51.728;8.748;2023-04-12T01:07:06;99536.88;;;6.91;100.00
34925;BME280;21130;51.728;8.748;2023-04-12T01:09:47;99535.66;;;6.87;100.00
34925;BME280;21130;51.728;8.748;2023-04-12T01:12:24;99534.25;;;6.84;100.00
34925;BME280;21130;51.728;8.748;2023-04-12T01:14:59;99538.94;;;6.84;100.00
34925;BME280;21130;51.728;8.748;2023-04-12T01:17:29;99536.16;;;6.84;100.00
34925;BME280;21130;51.728;8.748;2023-04-12T01:20:01;99524.31;;;6.71;100.00
34925;BME280;21130;51.728;8.748;2023-04-12T01:22:48;99536.44;;;6.70;100.00
34925;BME280;21130;51.728;8.748;2023-04-12T01:25:36;99535.13;;;6.73;100.00
34925;BME280;21130;51.728;8.748;2023-04-12T01:28:06;99526.03;;;6.73;100.00
34925;BME280;21130;51.728;8.748;2023-04-12T01:30:35;99515.94;;;6.66;100.00
34925;BME280;21130;51.728;8.748;2023-04-12T01:33:04;99518.09;;;6.64;100.00
34925;BME280;21130;51.728;8.748;2023-04-12T01:35:32;99509.84;;;6.64;100.00
34925;BME280;21130;51.728;8.748;2023-04-12T01:37:59;99498.13;;;6.57;100.00
34925;BME280;21130;51.728;8.748;2023-04-12T01:40:27;99502.06;;;6.61;100.00
34925;BME280;21130;51.728;8.748;2023-04-12T01:43:04;99500.78;;;6.52;100.00
34925;BME280;21130;51.728;8.748;2023-04-12T01:45:31;99495.38;;;6.57;100.00
34925;BME280;21130;51.728;8.748;2023-04-12T01:47:58;99491.41;;;6.65;100.00
34925;BME280;21130;51.728;8.748;2023-04-12T01:50:32;99479.63;;;6.69;100.00
34925;BME280;21130;51.728;8.748;2023-04-12T01:53:03;99472.78;;;6.72;100.00
34925;BME280;21130;51.728;8.748;2023-04-12T01:55:34;99481.91;;;6.73;100.00
34925;BME280;21130;51.728;8.748;2023-04-12T01:58:05;99482.75;;;6.73;100.00
34925;BME280;21130;51.728;8.748;2023-04-12T02:00:34;99474.97;;;6.70;100.00
34925;BME280;21130;51.728;8.748;2023-04-12T02:03:03;99470.28;;;6.70;100.00
34925;BME280;21130;51.728;8.748;2023-04-12T02:05:30;99474.97;;;6.70;100.00
34925;BME280;21130;51.728;8.748;2023-04-12T02:07:57;99481.03;;;6.72;100.00
34925;BME280;21130;51.728;8.748;2023-04-12T02:10:27;99478.88;;;6.74;100.00
34925;BME280;21130;51.728;8.748;2023-04-12T02:12:57;99475.66;;;6.77;100.00
34925;BME280;21130;51.728;8.748;2023-04-12T02:15:25;99467.63;;;6.76;100.00
34925;BME280;21130;51.728;8.748;2023-04-12T02:17:51;99460.44;;;6.75;100.00
34925;BME280;21130;51.728;8.748;2023-04-12T02:20:18;99452.91;;;6.70;100.00
34925;BME280;21130;51.728;8.748;2023-04-12T02:22:45;99443.03;;;6.74;100.00
34925;BME280;21130;51.728;8.748;2023-04-12T02:25:12;99425.16;;;6.77;100.00
34925;BME280;21130;51.728;8.748;2023-04-12T02:27:39;99435.56;;;6.86;100.00
34925;BME280;21130;51.728;8.748;2023-04-12T02:30:07;99433.63;;;6.87;100.00
34925;BME280;21130;51.728;8.748;2023-04-12T02:32:35;99432.97;;;6.97;100.00
34925;BME280;21130;51.728;8.748;2023-04-12T02:35:08;99415.00;;;6.94;100.00
34925;BME280;21130;51.728;8.748;2023-04-12T02:37:35;99415.97;;;7.00;100.00
34925;BME280;21130;51.728;8.748;2023-04-12T02:40:02;99416.78;;;7.00;100.00
34925;BME280;21130;51.728;8.748;2023-04-12T02:42:30;99408.09;;;7.08;100.00
34925;BME280;21130;51.728;8.748;2023-04-12T02:44:57;99404.84;;;7.11;100.00
34925;BME280;21130;51.728;8.748;2023-04-12T02:47:23;99397.91;;;7.09;100.00
34925;BME280;21130;51.728;8.748;2023-04-12T02:49:54;99402.06;;;7.11;100.00
34925;BME280;21130;51.728;8.748;2023-04-12T02:52:20;99397.06;;;7.08;100.00
34925;BME280;21130;51.728;8.748;2023-04-12T02:54:48;99400.66;;;7.09;100.00
34925;BME280;21130;51.728;8.748;2023-04-12T02:57:14;99385.28;;;7.13;100.00
34925;BME280;21130;51.728;8.748;2023-04-12T02:59:41;99369.72;;;7.07;100.00
34925;BME280;21130;51.728;8.748;2023-04-12T03:02:08;99371.31;;;7.03;100.00
34925;BME280;21130;51.728;8.748;2023-04-12T03:04:34;99360.00;;;7.04;100.00
34925;BME280;21130;51.728;8.748;2023-04-12T03:07:05;99362.22;;;7.02;100.00
34925;BME280;21130;51.728;8.748;2023-04-12T03:09:32;99350.66;;;7.05;100.00
34925;BME280;21130;51.728;8.748;2023-04-12T03:11:58;99356.69;;;7.02;100.00
34925;BME280;21130;51.728;8.748;2023-04-12T03:14:25;99340.13;;;7.02;100.00
34925;BME280;21130;51.728;8.748;2023-04-12T03:16:51;99344.47;;;6.98;100.00
34925;BME280;21130;51.728;8.748;2023-04-12T03:19:18;99337.84;;;6.99;100.00
34925;BME280;21130;51.728;8.748;2023-04-12T03:21:44;99336.19;;;6.98;100.00
34925;BME280;21130;51.728;8.748;2023-04-12T03:24:12;99334.94;;;7.06;100.00
34925;BME280;21130;51.728;8.748;2023-04-12T03:26:38;99321.97;;;7.06;100.00
34925;BME280;21130;51.728;8.748;2023-04-12T03:29:05;99316.97;;;7.03;100.00
34925;BME280;21130;51.728;8.748;2023-04-12T03:31:33;99309.38;;;7.10;100.00
34925;BME280;21130;51.728;8.748;2023-04-12T03:34:00;99316.53;;;7.11;100.00
34925;BME280;21130;51.728;8.748;2023-04-12T03:36:26;99309.59;;;7.09;100.00
34925;BME280;21130;51.728;8.748;2023-04-12T03:38:54;99300.25;;;7.10;100.00
34925;BME280;21130;51.728;8.748;2023-04-12T03:41:22;99294.47;;;7.11;100.00
34925;BME280;21130;51.728;8.748;2023-04-12T03:43:48;99288.63;;;7.08;100.00
34925;BME280;21130;51.728;8.748;2023-04-12T03:46:15;99279.09;;;7.16;100.00
34925;BME280;21130;51.728;8.748;2023-04-12T03:48:41;99273.13;;;7.24;100.00
34925;BME280;21130;51.728;8.748;2023-04-12T03:51:08;99268.78;;;7.28;100.00
34925;BME280;21130;51.728;8.748;2023-04-12T03:53:36;99258.91;;;7.32;100.00
34925;BME280;21130;51.728;8.748;2023-04-12T03:56:02;99246.50;;;7.34;100.00
34925;BME280;21130;51.728;8.748;2023-04-12T03:58:31;99243.28;;;7.38;100.00
34925;BME280;21130;51.728;8.748;2023-04-12T04:00:58;99239.09;;;7.35;100.00
34925;BME280;21130;51.728;8.748;2023-04-12T04:03:25;99231.13;;;7.39;100.00
34925;BME280;21130;51.728;8.748;2023-04-12T04:05:53;99231.38;;;7.37;100.00
34925;BME280;21130;51.728;8.748;2023-04-12T04:08:20;99215.31;;;7.34;100.00
34925;BME280;21130;51.728;8.748;2023-04-12T04:10:46;99208.72;;;7.35;100.00
34925;BME280;21130;51.728;8.748;2023-04-12T04:13:13;99208.41;;;7.31;100.00
34925;BME280;21130;51.728;8.748;2023-04-12T04:15:41;99205.91;;;7.30;100.00
34925;BME280;21130;51.728;8.748;2023-04-12T04:18:07;99201.47;;;7.29;100.00
34925;BME280;21130;51.728;8.748;2023-04-12T04:20:33;99198.88;;;7.22;100.00
34925;BME280;21130;51.728;8.748;2023-04-12T04:23:00;99190.88;;;7.21;100.00
34925;BME280;21130;51.728;8.748;2023-04-12T04:25:26;99186.94;;;7.17;100.00
34925;BME280;21130;51.728;8.748;2023-04-12T04:27:54;99184.47;;;7.15;100.00
34925;BME280;21130;51.728;8.748;2023-04-12T04:30:23;99179.50;;;7.17;100.00
34925;BME280;21130;51.728;8.748;2023-04-12T04:32:52;99163.72;;;7.12;100.00
34925;BME280;21130;51.728;8.748;2023-04-12T04:35:18;99160.63;;;7.09;100.00
34925;BME280;21130;51.728;8.748;2023-04-12T04:37:46;99164.16;;;7.04;100.00
34925;BME280;21130;51.728;8.748;2023-04-12T04:40:13;99155.81;;;6.99;100.00
34925;BME280;21130;51.728;8.748;2023-04-12T04:42:39;99150.72;;;6.91;100.00
34925;BME280;21130;51.728;8.748;2023-04-12T04:45:07;99141.03;;;6.88;100.00
34925;BME280;21130;51.728;8.748;2023-04-12T04:47:38;99149.56;;;6.87;100.00
34925;BME280;21130;51.728;8.748;2023-04-12T04:50:06;99151.25;;;6.88;100.00
34925;BME280;21130;51.728;8.748;2023-04-12T04:52:33;99145.47;;;6.89;100.00
34925;BME280;21130;51.728;8.748;2023-04-12T04:55:02;99133.34;;;6.90;100.00
34925;BME280;21130;51.728;8.748;2023-04-12T04:57:28;99135.53;;;6.88;100.00
34925;BME280;21130;51.728;8.748;2023-04-12T04:59:55;99120.63;;;6.89;100.00
34925;BME280;21130;51.728;8.748;2023-04-12T05:02:21;99123.09;;;6.86;100.00
34925;BME280;21130;51.728;8.748;2023-04-12T05:04:47;99107.38;;;6.86;100.00
34925;BME280;21130;51.728;8.748;2023-04-12T05:07:15;99103.78;;;6.86;100.00
34925;BME280;21130;51.728;8.748;2023-04-12T05:09:41;99107.13;;;6.88;100.00
34925;BME280;21130;51.728;8.748;2023-04-12T05:12:08;99109.38;;;6.91;100.00
34925;BME280;21130;51.728;8.748;2023-04-12T05:14:34;99095.06;;;6.94;100.00
34925;BME280;21130;51.728;8.748;2023-04-12T05:17:02;99096.47;;;6.97;100.00
34925;BME280;21130;51.728;8.748;2023-04-12T05:19:29;99078.91;;;7.03;100.00
34925;BME280;21130;51.728;8.748;2023-04-12T05:21:56;99082.25;;;7.05;100.00
34925;BME280;21130;51.728;8.748;2023-04-12T05:24:24;99074.28;;;7.08;100.00
34925;BME280;21130;51.728;8.748;2023-04-12T05:26:50;99055.28;;;7.12;100.00
34925;BME280;21130;51.728;8.748;2023-04-12T05:29:17;99056.75;;;7.20;100.00
34925;BME280;21130;51.728;8.748;2023-04-12T05:31:43;99041.69;;;7.27;100.00
34925;BME280;21130;51.728;8.748;2023-04-12T05:34:09;99049.97;;;7.27;100.00
34925;BME280;21130;51.728;8.748;2023-04-12T05:36:36;99044.75;;;7.31;100.00
34925;BME280;21130;51.728;8.748;2023-04-12T05:39:03;99055.25;;;7.34;100.00
34925;BME280;21130;51.728;8.748;2023-04-12T05:41:31;99044.78;;;7.36;100.00
34925;BME280;21130;51.728;8.748;2023-04-12T05:43:57;99038.16;;;7.37;100.00
34925;BME280;21130;51.728;8.748;2023-04-12T05:46:24;99040.09;;;7.36;100.00
34925;BME280;21130;51.728;8.748;2023-04-12T05:48:50;99047.56;;;7.36;100.00
34925;BME280;21130;51.728;8.748;2023-04-12T05:51:17;99043.13;;;7.35;100.00
34925;BME280;21130;51.728;8.748;2023-04-12T05:53:43;99044.84;;;7.41;100.00
34925;BME280;21130;51.728;8.748;2023-04-12T05:56:09;99042.34;;;7.40;100.00
34925;BME280;21130;51.728;8.748;2023-04-12T05:58:37;99034.34;;;7.38;100.00
34925;BME280;21130;51.728;8.748;2023-04-12T06:01:04;99037.09;;;7.38;100.00
34925;BME280;21130;51.728;8.748;2023-04-12T06:03:30;99030.47;;;7.39;100.00
34925;BME280;21130;51.728;8.748;2023-04-12T06:05:57;99008.38;;;7.39;100.00
34925;BME280;21130;51.728;8.748;2023-04-12T06:08:23;99013.38;;;7.42;100.00
34925;BME280;21130;51.728;8.748;2023-04-12T06:10:53;99015.38;;;7.47;100.00
34925;BME280;21130;51.728;8.748;2023-04-12T06:13:20;99017.88;;;7.48;100.00
34925;BME280;21130;51.728;8.748;2023-04-12T06:15:48;99000.25;;;7.54;100.00
34925;BME280;21130;51.728;8.748;2023-04-12T06:18:14;98994.47;;;7.56;100.00
34925;BME280;21130;51.728;8.748;2023-04-12T06:20:41;98988.41;;;7.59;100.00
34925;BME280;21130;51.728;8.748;2023-04-12T06:23:07;98983.72;;;7.60;100.00
34925;BME280;21130;51.728;8.748;2023-04-12T06:25:34;98973.25;;;7.62;100.00
34925;BME280;21130;51.728;8.748;2023-04-12T06:28:01;98970.53;;;7.67;100.00
34925;BME280;21130;51.728;8.748;2023-04-12T06:30:27;98976.06;;;7.67;100.00
34925;BME280;21130;51.728;8.748;2023-04-12T06:32:55;98965.81;;;7.62;100.00
34925;BME280;21130;51.728;8.748;2023-04-12T06:35:22;98960.56;;;7.61;100.00
34925;BME280;21130;51.728;8.748;2023-04-12T06:37:48;98958.34;;;7.57;100.00
34925;BME280;21130;51.728;8.748;2023-04-12T06:40:15;98958.06;;;7.59;100.00
34925;BME280;21130;51.728;8.748;2023-04-12T06:42:41;98951.41;;;7.55;100.00
34925;BME280;21130;51.728;8.748;2023-04-12T06:45:27;98936.22;;;7.52;100.00
34925;BME280;21130;51.728;8.748;2023-04-12T06:48:15;98943.91;;;7.50;100.00
34925;BME280;21130;51.728;8.748;2023-04-12T06:51:02;98938.97;;;7.52;100.00
34925;BME280;21130;51.728;8.748;2023-04-12T06:53:48;98941.16;;;7.50;100.00
34925;BME280;21130;51.728;8.748;2023-04-12T06:56:35;98938.66;;;7.49;100.00
34925;BME280;21130;51.728;8.748;2023-04-12T06:59:22;98924.22;;;7.42;100.00
34925;BME280;21130;51.728;8.748;2023-04-12T07:02:08;98929.44;;;7.38;100.00
34925;BME280;21130;51.728;8.748;2023-04-12T07:04:56;98928.22;;;7.24;100.00
34925;BME280;21130;51.728;8.748;2023-04-12T07:07:43;98928.38;;;7.12;100.00
34925;BME280;21130;51.728;8.748;2023-04-12T07:10:29;98928.59;;;7.05;100.00
34925;BME280;21130;51.728;8.748;2023-04-12T07:13:16;98921.34;;;6.99;100.00
34925;BME280;21130;51.728;8.748;2023-04-12T07:16:04;98909.50;;;6.99;100.00
34925;BME280;21130;51.728;8.748;2023-04-12T07:18:50;98910.53;;;6.92;100.00
34925;BME280;21130;51.728;8.748;2023-04-12T07:21:38;98906.38;;;6.90;100.00
34925;BME280;21130;51.728;8.748;2023-04-12T07:24:25;98901.94;;;6.89;100.00
34925;BME280;21130;51.728;8.748;2023-04-12T07:27:11;98893.38;;;6.85;100.00
34925;BME280;21130;51.728;8.748;2023-04-12T07:29:58;98896.91;;;6.81;100.00
34925;BME280;21130;51.728;8.748;2023-04-12T07:32:44;98888.56;;;6.76;100.00
34925;BME280;21130;51.728;8.748;2023-04-12T07:35:31;98884.41;;;6.73;100.00
34925;BME280;21130;51.728;8.748;2023-04-12T07:38:18;98874.22;;;6.74;100.00
34925;BME280;21130;51.728;8.748;2023-04-12T07:41:05;98873.63;;;6.71;100.00
34925;BME280;21130;51.728;8.748;2023-04-12T07:43:51;98864.78;;;6.69;100.00
34925;BME280;21130;51.728;8.748;2023-04-12T07:46:38;98857.03;;;6.66;100.00
34925;BME280;21130;51.728;8.748;2023-04-12T07:49:26;98858.97;;;6.66;100.00
34925;BME280;21130;51.728;8.748;2023-04-12T07:52:12;98845.19;;;6.66;100.00
34925;BME280;21130;51.728;8.748;2023-04-12T07:55:00;98831.66;;;6.64;100.00
34925;BME280;21130;51.728;8.748;2023-04-12T07:57:46;98842.69;;;6.64;100.00
34925;BME280;21130;51.728;8.748;2023-04-12T08:00:32;98837.16;;;6.64;100.00
34925;BME280;21130;51.728;8.748;2023-04-12T08:03:19;98841.59;;;6.65;100.00
34925;BME280;21130;51.728;8.748;2023-04-12T08:06:06;98821.78;;;6.68;100.00
34925;BME280;21130;51.728;8.748;2023-04-12T08:08:53;98817.91;;;6.69;100.00
34925;BME280;21130;51.728;8.748;2023-04-12T08:11:41;98824.59;;;6.74;100.00
34925;BME280;21130;51.728;8.748;2023-04-12T08:14:27;98804.75;;;6.77;100.00
34925;BME280;21130;51.728;8.748;2023-04-12T08:17:13;98807.56;;;6.82;100.00
34925;BME280;21130;51.728;8.748;2023-04-12T08:20:00;98813.13;;;6.87;100.00
34925;BME280;21130;51.728;8.748;2023-04-12T08:22:48;98801.88;;;6.93;100.00
34925;BME280;21130;51.728;8.748;2023-04-12T08:25:36;98806.03;;;6.96;100.00
34925;BME280;21130;51.728;8.748;2023-04-12T08:28:24;98807.19;;;7.00;100.00
34925;BME280;21130;51.728;8.748;2023-04-12T08:31:13;98799.78;;;7.06;100.00
34925;BME280;21130;51.728;8.748;2023-04-12T08:33:59;98799.59;;;7.18;100.00
34925;BME280;21130;51.728;8.748;2023-04-12T08:36:45;98794.72;;;7.30;100.00
34925;BME280;21130;51.728;8.748;2023-04-12T08:39:32;98787.38;;;7.46;100.00
34925;BME280;21130;51.728;8.748;2023-04-12T08:42:18;98792.97;;;7.61;100.00
34925;BME280;21130;51.728;8.748;2023-04-12T08:45:09;98786.66;;;7.66;100.00
34925;BME280;21130;51.728;8.748;2023-04-12T08:47:58;98786.97;;;7.74;100.00
34925;BME280;21130;51.728;8.748;2023-04-12T08:50:45;98770.97;;;7.76;100.00
34925;BME280;21130;51.728;8.748;2023-04-12T08:53:31;98773.47;;;7.78;100.00
34925;BME280;21130;51.728;8.748;2023-04-12T08:56:19;98769.31;;;7.81;100.00
34925;BME280;21130;51.728;8.748;2023-04-12T08:59:07;98764.66;;;7.86;100.00
34925;BME280;21130;51.728;8.748;2023-04-12T09:01:57;98753.38;;;7.93;100.00
34925;BME280;21130;51.728;8.748;2023-04-12T09:04:47;98748.13;;;7.96;100.00
34925;BME280;21130;51.728;8.748;2023-04-12T09:07:34;98739.28;;;8.05;100.00
34925;BME280;21130;51.728;8.748;2023-04-12T09:10:29;98725.78;;;8.08;100.00
34925;BME280;21130;51.728;8.748;2023-04-12T09:12:57;98736.53;;;8.05;100.00
34925;BME280;21130;51.728;8.748;2023-04-12T09:15:23;98726.34;;;8.10;100.00
34925;BME280;21130;51.728;8.748;2023-04-12T09:18:02;98717.75;;;8.12;100.00
34925;BME280;21130;51.728;8.748;2023-04-12T09:20:29;98715.31;;;8.20;100.00
34925;BME280;21130;51.728;8.748;2023-04-12T09:22:57;98708.94;;;8.20;100.00
34925;BME280;21130;51.728;8.748;2023-04-12T09:25:36;98701.19;;;8.17;100.00
34925;BME280;21130;51.728;8.748;2023-04-12T09:28:04;98697.34;;;8.23;100.00
34925;BME280;21130;51.728;8.748;2023-04-12T09:30:42;98685.19;;;8.34;100.00
34925;BME280;21130;51.728;8.748;2023-04-12T09:33:13;98694.38;;;8.50;100.00
34925;BME280;21130;51.728;8.748;2023-04-12T09:35:40;98696.59;;;8.58;100.00
34925;BME280;21130;51.728;8.748;2023-04-12T09:38:07;98701.00;;;8.80;100.00
34925;BME280;21130;51.728;8.748;2023-04-12T09:40:34;98698.50;;;8.94;100.00
34925;BME280;21130;51.728;8.748;2023-04-12T09:43:01;98692.16;;;8.83;100.00
34925;BME280;21130;51.728;8.748;2023-04-12T09:45:30;98685.22;;;8.65;100.00
34925;BME280;21130;51.728;8.748;2023-04-12T09:47:58;98685.25;;;8.80;100.00
34925;BME280;21130;51.728;8.748;2023-04-12T09:50:27;98687.41;;;9.04;100.00
34925;BME280;21130;51.728;8.748;2023-04-12T09:52:55;98681.88;;;8.99;100.00
34925;BME280;21130;51.728;8.748;2023-04-12T09:55:23;98677.19;;;8.89;100.00
34925;BME280;21130;51.728;8.748;2023-04-12T09:57:51;98662.78;;;8.97;100.00
34925;BME280;21130;51.728;8.748;2023-04-12T10:00:21;98668.00;;;9.19;100.00
34925;BME280;21130;51.728;8.748;2023-04-12T10:02:50;98666.00;;;9.40;100.00
34925;BME280;21130;51.728;8.748;2023-04-12T10:06:51;98660.94;;;9.58;100.00
34925;BME280;21130;51.728;8.748;2023-04-12T10:09:18;98662.28;;;9.76;100.00
34925;BME280;21130;51.728;8.748;2023-04-12T10:11:45;98654.34;;;10.03;100.00
34925;BME280;21130;51.728;8.748;2023-04-12T10:14:12;98655.25;;;10.33;100.00
34925;BME280;21130;51.728;8.748;2023-04-12T10:16:40;98648.56;;;10.39;100.00
34925;BME280;21130;51.728;8.748;2023-04-12T10:19:07;98653.34;;;10.33;100.00
34925;BME280;21130;51.728;8.748;2023-04-12T10:21:35;98647.09;;;10.07;100.00
34925;BME280;21130;51.728;8.748;2023-04-12T10:24:03;98634.25;;;10.22;100.00
34925;BME280;21130;51.728;8.748;2023-04-12T10:26:31;98633.25;;;10.07;100.00
34925;BME280;21130;51.728;8.748;2023-04-12T10:29:23;98633.56;;;10.06;100.00
34925;BME280;21130;51.728;8.748;2023-04-12T10:31:50;98630.56;;;9.92;100.00
34925;BME280;21130;51.728;8.748;2023-04-12T10:34:17;98621.72;;;9.90;100.00
34925;BME280;21130;51.728;8.748;2023-04-12T10:36:50;98615.03;;;9.96;100.00
34925;BME280;21130;51.728;8.748;2023-04-12T10:39:34;98621.56;;;10.10;100.00
34925;BME280;21130;51.728;8.748;2023-04-12T10:42:22;98620.97;;;10.19;100.00
34925;BME280;21130;51.728;8.748;2023-04-12T10:51:14;98622.66;;;10.54;100.00
34925;BME280;21130;51.728;8.748;2023-04-12T10:53:45;98622.66;;;10.83;100.00
34925;BME280;21130;51.728;8.748;2023-04-12T10:56:36;98614.53;;;11.16;100.00
34925;BME280;21130;51.728;8.748;2023-04-12T10:59:03;98609.72;;;11.45;100.00
34925;BME280;21130;51.728;8.748;2023-04-12T11:01:30;98605.13;;;11.60;100.00
34925;BME280;21130;51.728;8.748;2023-04-12T11:04:14;98601.50;;;11.16;100.00
34925;BME280;21130;51.728;8.748;2023-04-12T11:06:49;98614.59;;;11.11;100.00
34925;BME280;21130;51.728;8.748;2023-04-12T11:09:21;98607.94;;;10.58;100.00
34925;BME280;21130;51.728;8.748;2023-04-12T11:11:51;98608.50;;;10.21;100.00
34925;BME280;21130;51.728;8.748;2023-04-12T11:14:27;98611.88;;;10.08;100.00
34925;BME280;21130;51.728;8.748;2023-04-12T11:17:19;98604.59;;;10.22;100.00
34925;BME280;21130;51.728;8.748;2023-04-12T11:19:49;98599.75;;;10.38;100.00
34925;BME280;21130;51.728;8.748;2023-04-12T11:22:18;98608.59;;;10.45;100.00
34925;BME280;21130;51.728;8.748;2023-04-12T11:24:47;98612.41;;;10.54;100.00
34925;BME280;21130;51.728;8.748;2023-04-12T11:27:15;98607.75;;;10.45;100.00
34925;BME280;21130;51.728;8.748;2023-04-12T11:29:42;98610.06;;;10.32;100.00
34925;BME280;21130;51.728;8.748;2023-04-12T11:32:12;98596.47;;;10.36;100.00
34925;BME280;21130;51.728;8.748;2023-04-12T11:34:40;98597.44;;;10.50;100.00
34925;BME280;21130;51.728;8.748;2023-04-12T11:37:08;98583.81;;;10.83;100.00
34925;BME280;21130;51.728;8.748;2023-04-12T11:39:35;98590.38;;;10.92;100.00
34925;BME280;21130;51.728;8.748;2023-04-12T11:42:02;98575.22;;;11.09;100.00
34925;BME280;21130;51.728;8.748;2023-04-12T11:44:31;98563.44;;;11.17;100.00
34925;BME280;21130;51.728;8.748;2023-04-12T11:46:58;98568.88;;;11.46;100.00
34925;BME280;21130;51.728;8.748;2023-04-12T11:49:25;98573.09;;;11.43;100.00
34925;BME280;21130;51.728;8.748;2023-04-12T11:52:00;98571.56;;;12.13;100.00
34925;BME280;21130;51.728;8.748;2023-04-12T11:54:28;98564.81;;;12.66;100.00
34925;BME280;21130;51.728;8.748;2023-04-12T11:56:56;98564.84;;;12.80;100.00
34925;BME280;21130;51.728;8.748;2023-04-12T11:59:31;98565.63;;;12.52;100.00
34925;BME280;21130;51.728;8.748;2023-04-12T12:01:58;98560.25;;;12.56;100.00
34925;BME280;21130;51.728;8.748;2023-04-12T12:04:26;98565.91;;;12.18;100.00
34925;BME280;21130;51.728;8.748;2023-04-12T12:06:54;98559.75;;;11.83;100.00
34925;BME280;21130;51.728;8.748;2023-04-12T12:09:21;98562.75;;;11.68;100.00
34925;BME280;21130;51.728;8.748;2023-04-12T12:11:48;98556.31;;;11.54;100.00
34925;BME280;21130;51.728;8.748;2023-04-12T12:14:17;98557.09;;;11.35;100.00
34925;BME280;21130;51.728;8.748;2023-04-12T12:16:52;98568.13;;;11.40;100.00
34925;BME280;21130;51.728;8.748;2023-04-12T12:19:31;98560.69;;;11.36;100.00
34925;BME280;21130;51.728;8.748;2023-04-12T12:22:15;98555.47;;;11.34;100.00
34925;BME280;21130;51.728;8.748;2023-04-12T12:24:48;98559.66;;;11.32;100.00
34925;BME280;21130;51.728;8.748;2023-04-12T12:27:18;98549.59;;;11.36;100.00
34925;BME280;21130;51.728;8.748;2023-04-12T12:29:49;98553.66;;;11.43;100.00
34925;BME280;21130;51.728;8.748;2023-04-12T12:32:19;98554.19;;;11.45;100.00
34925;BME280;21130;51.728;8.748;2023-04-12T12:34:52;98551.94;;;11.48;100.00
34925;BME280;21130;51.728;8.748;2023-04-12T12:37:20;98557.06;;;11.59;100.00
34925;BME280;21130;51.728;8.748;2023-04-12T12:40:05;98555.47;;;11.53;100.00
34925;BME280;21130;51.728;8.748;2023-04-12T12:42:45;98554.66;;;11.53;100.00
34925;BME280;21130;51.728;8.748;2023-04-12T12:45:13;98551.31;;;11.51;100.00
34925;BME280;21130;51.728;8.748;2023-04-12T12:47:50;98552.06;;;11.37;100.00
34925;BME280;21130;51.728;8.748;2023-04-12T12:50:18;98552.00;;;11.23;100.00
34925;BME280;21130;51.728;8.748;2023-04-12T12:52:46;98542.81;;;11.23;100.00
34925;BME280;21130;51.728;8.748;2023-04-12T13:04:32;98535.47;;;11.32;100.00
34925;BME280;21130;51.728;8.748;2023-04-12T13:06:59;98537.19;;;11.28;100.00
34925;BME280;21130;51.728;8.748;2023-04-12T13:09:26;98524.16;;;11.29;100.00
34925;BME280;21130;51.728;8.748;2023-04-12T13:11:53;98532.03;;;11.40;100.00
34925;BME280;21130;51.728;8.748;2023-04-12T13:14:21;98520.63;;;11.42;100.00
34925;BME280;21130;51.728;8.748;2023-04-12T13:16:48;98528.06;;;11.46;100.00
34925;BME280;21130;51.728;8.748;2023-04-12T13:19:14;98521.44;;;11.42;100.00
34925;BME280;21130;51.728;8.748;2023-04-12T13:21:42;98514.09;;;11.52;100.00
34925;BME280;21130;51.728;8.748;2023-04-12T13:24:09;98518.53;;;11.72;100.00
34925;BME280;21130;51.728;8.748;2023-04-12T13:26:36;98508.16;;;11.96;100.00
34925;BME280;21130;51.728;8.748;2023-04-12T13:29:03;98500.13;;;12.27;100.00
34925;BME280;21130;51.728;8.748;2023-04-12T13:31:33;98504.97;;;12.36;100.00
34925;BME280;21130;51.728;8.748;2023-04-12T13:33:59;98503.97;;;12.31;100.00
34925;BME280;21130;51.728;8.748;2023-04-12T13:36:26;98502.13;;;12.41;100.00
34925;BME280;21130;51.728;8.748;2023-04-12T13:38:54;98493.16;;;12.11;100.00